sensor_id;sensor_type;location;lat;lon;timestamp;P1;durP1;ratioP1;P2;durP2;ratioP2
5646;SDS011;2845;48.626;9.362;2022-12-24T00:05:00;3.88;;;0.65;;
5646;SDS011;2845;48.626;9.362;2022-12-24T00:12:00;2.80;;;0.50;;
5646;SDS011;2845;48.626;9.362;2022-12-24T00:18:55;1.10;;;0.30;;
5646;SDS011;2845;48.626;9.362;2022-12-24T00:51:31;1.02;;;0.60;;
5646;SDS011;2845;48.626;9.362;2022-12-24T01:01:44;0.68;;;0.28;;
5646;SDS011;2845;48.626;9.362;2022-12-24T01:13:11;1.83;;;0.40;;
5646;SDS011;2845;48.626;9.362;2022-12-24T01:20:17;1.80;;;0.30;;
5646;SDS011;2845;48.626;9.362;2022-12-24T01:57:52;1.65;;;0.35;;
5646;SDS011;2845;48.626;9.362;2022-12-24T02:04:46;1.05;;;0.40;;
5646;SDS011;2845;48.626;9.362;2022-12-24T03:07:57;2.92;;;0.52;;
5646;SDS011;2845;48.626;9.362;2022-12-24T03:18:43;2.30;;;0.90;;
5646;SDS011;2845;48.626;9.362;2022-12-24T03:26:00;1.95;;;0.60;;
5646;SDS011;2845;48.626;9.362;2022-12-24T03:33:35;1.48;;;0.52;;
5646;SDS011;2845;48.626;9.362;2022-12-24T03:40:13;2.20;;;0.77;;
5646;SDS011;2845;48.626;9.362;2022-12-24T04:21:56;1.80;;;0.50;;
5646;SDS011;2845;48.626;9.362;2022-12-24T04:28:44;1.63;;;0.60;;
5646;SDS011;2845;48.626;9.362;2022-12-24T04:56:13;1.75;;;0.50;;
5646;SDS011;2845;48.626;9.362;2022-12-24T05:07:57;2.17;;;0.93;;
5646;SDS011;2845;48.626;9.362;2022-12-24T05:19:01;2.25;;;0.60;;
5646;SDS011;2845;48.626;9.362;2022-12-24T05:25:50;1.58;;;0.43;;
5646;SDS011;2845;48.626;9.362;2022-12-24T05:33:09;1.63;;;0.55;;
5646;SDS011;2845;48.626;9.362;2022-12-24T05:44:27;4.25;;;0.77;;
5646;SDS011;2845;48.626;9.362;2022-12-24T06:08:37;2.53;;;0.73;;
5646;SDS011;2845;48.626;9.362;2022-12-24T06:11:40;1.25;;;0.50;;
5646;SDS011;2845;48.626;9.362;2022-12-24T06:23:12;1.13;;;0.45;;
5646;SDS011;2845;48.626;9.362;2022-12-24T06:34:47;3.22;;;0.70;;
5646;SDS011;2845;48.626;9.362;2022-12-24T06:50:13;1.05;;;0.30;;
5646;SDS011;2845;48.626;9.362;2022-12-24T07:03:51;1.75;;;0.55;;
5646;SDS011;2845;48.626;9.362;2022-12-24T07:34:06;2.03;;;0.80;;
5646;SDS011;2845;48.626;9.362;2022-12-24T08:07:54;4.25;;;1.33;;
5646;SDS011;2845;48.626;9.362;2022-12-24T08:30:00;5.20;;;1.10;;
5646;SDS011;2845;48.626;9.362;2022-12-24T08:48:05;2.15;;;0.40;;
5646;SDS011;2845;48.626;9.362;2022-12-24T09:11:00;5.03;;;1.00;;
5646;SDS011;2845;48.626;9.362;2022-12-24T09:22:09;2.80;;;0.70;;
5646;SDS011;2845;48.626;9.362;2022-12-24T09:29:02;3.78;;;0.77;;
5646;SDS011;2845;48.626;9.362;2022-12-24T09:44:50;3.90;;;1.05;;
5646;SDS011;2845;48.626;9.362;2022-12-24T09:56:21;3.03;;;0.80;;
5646;SDS011;2845;48.626;9.362;2022-12-24T10:18:55;4.85;;;1.30;;
5646;SDS011;2845;48.626;9.362;2022-12-24T10:26:00;2.17;;;1.10;;
5646;SDS011;2845;48.626;9.362;2022-12-24T10:33:18;2.97;;;1.08;;
5646;SDS011;2845;48.626;9.362;2022-12-24T10:40:23;3.22;;;0.93;;
5646;SDS011;2845;48.626;9.362;2022-12-24T11:04:00;3.83;;;0.65;;
5646;SDS011;2845;48.626;9.362;2022-12-24T11:14:32;3.92;;;0.57;;
5646;SDS011;2845;48.626;9.362;2022-12-24T11:17:17;2.78;;;0.52;;
5646;SDS011;2845;48.626;9.362;2022-12-24T11:39:22;5.05;;;0.80;;
5646;SDS011;2845;48.626;9.362;2022-12-24T11:46:21;4.43;;;0.88;;
5646;SDS011;2845;48.626;9.362;2022-12-24T11:53:27;2.20;;;0.57;;
5646;SDS011;2845;48.626;9.362;2022-12-24T12:03:08;1.92;;;0.80;;
5646;SDS011;2845;48.626;9.362;2022-12-24T12:06:39;1.13;;;0.60;;
5646;SDS011;2845;48.626;9.362;2022-12-24T12:13:59;2.58;;;0.70;;
5646;SDS011;2845;48.626;9.362;2022-12-24T12:25:49;3.42;;;0.52;;
5646;SDS011;2845;48.626;9.362;2022-12-24T12:33:02;2.28;;;0.70;;
5646;SDS011;2845;48.626;9.362;2022-12-24T12:40:29;7.40;;;0.70;;
5646;SDS011;2845;48.626;9.362;2022-12-24T12:55:52;2.28;;;0.95;;
5646;SDS011;2845;48.626;9.362;2022-12-24T13:07:29;3.88;;;1.10;;
5646;SDS011;2845;48.626;9.362;2022-12-24T13:18:44;8.00;;;1.02;;
5646;SDS011;2845;48.626;9.362;2022-12-24T13:25:48;3.97;;;1.48;;
5646;SDS011;2845;48.626;9.362;2022-12-24T13:47:17;5.07;;;0.93;;
5646;SDS011;2845;48.626;9.362;2022-12-24T15:02:23;4.07;;;1.25;;
5646;SDS011;2845;48.626;9.362;2022-12-24T15:13:40;4.20;;;1.77;;
5646;SDS011;2845;48.626;9.362;2022-12-24T15:20:58;3.00;;;1.00;;
5646;SDS011;2845;48.626;9.362;2022-12-24T15:27:57;2.65;;;0.85;;
5646;SDS011;2845;48.626;9.362;2022-12-24T15:34:41;3.17;;;1.27;;
5646;SDS011;2845;48.626;9.362;2022-12-24T15:41:25;3.67;;;1.15;;
5646;SDS011;2845;48.626;9.362;2022-12-24T15:53:12;4.60;;;1.20;;
5646;SDS011;2845;48.626;9.362;2022-12-24T16:00:18;2.92;;;1.30;;
5646;SDS011;2845;48.626;9.362;2022-12-24T16:07:42;4.80;;;0.90;;
5646;SDS011;2845;48.626;9.362;2022-12-24T16:43:26;4.97;;;1.08;;
5646;SDS011;2845;48.626;9.362;2022-12-24T16:59:19;3.58;;;1.52;;
5646;SDS011;2845;48.626;9.362;2022-12-24T17:06:10;6.00;;;1.70;;
5646;SDS011;2845;48.626;9.362;2022-12-24T17:13:30;5.65;;;1.90;;
5646;SDS011;2845;48.626;9.362;2022-12-24T17:24:40;4.57;;;1.30;;
5646;SDS011;2845;48.626;9.362;2022-12-24T17:31:40;5.40;;;2.00;;
5646;SDS011;2845;48.626;9.362;2022-12-24T18:03:31;4.70;;;1.25;;
5646;SDS011;2845;48.626;9.362;2022-12-24T18:19:29;6.15;;;3.30;;
5646;SDS011;2845;48.626;9.362;2022-12-24T18:38:01;11.13;;;4.25;;
5646;SDS011;2845;48.626;9.362;2022-12-24T18:48:39;7.35;;;3.22;;
5646;SDS011;2845;48.626;9.362;2022-12-24T19:03:05;5.28;;;3.05;;
5646;SDS011;2845;48.626;9.362;2022-12-24T19:09:53;7.95;;;3.80;;
5646;SDS011;2845;48.626;9.362;2022-12-24T19:28:23;6.18;;;2.33;;
5646;SDS011;2845;48.626;9.362;2022-12-24T20:05:42;7.85;;;2.08;;
5646;SDS011;2845;48.626;9.362;2022-12-24T20:12:33;5.97;;;2.30;;
5646;SDS011;2845;48.626;9.362;2022-12-24T20:19:13;4.35;;;2.45;;
